createdAt,value
2023-01-18T00:01:13.234Z,20.60
2023-01-18T00:03:45.729Z,18.97
2023-01-18T00:06:22.639Z,21.53
2023-01-18T00:08:52.527Z,19.67
2023-01-18T00:11:24.456Z,17.97
2023-01-18T00:13:54.311Z,21.17
2023-01-18T00:16:26.092Z,16.87
2023-01-18T00:18:57.776Z,15.60
2023-01-18T00:21:32.093Z,15.07
2023-01-18T00:24:04.552Z,15.13
2023-01-18T00:26:35.502Z,23.10
2023-01-18T00:29:10.464Z,16.80
2023-01-18T00:31:41.943Z,15.37
2023-01-18T00:34:11.898Z,16.67
2023-01-18T00:36:44.265Z,19.80
2023-01-18T00:39:15.505Z,17.63
2023-01-18T00:42:05.791Z,16.97
2023-01-18T00:44:33.223Z,16.67
2023-01-18T00:47:02.945Z,13.37
2023-01-18T00:49:34.865Z,22.60
2023-01-18T00:52:07.762Z,17.83
2023-01-18T00:54:39.187Z,19.50
2023-01-18T00:57:13.609Z,14.03
2023-01-18T00:59:46.946Z,15.57
2023-01-18T01:02:17.917Z,17.63
2023-01-18T01:05:00.147Z,19.53
2023-01-18T01:07:32.620Z,12.33
2023-01-18T01:10:11.016Z,19.47
2023-01-18T01:12:56.607Z,15.03
2023-01-18T01:15:39.169Z,14.57
2023-01-18T01:18:21.839Z,14.83
2023-01-18T01:21:04.105Z,18.33
2023-01-18T01:23:49.051Z,22.53
2023-01-18T01:26:18.902Z,15.97
2023-01-18T01:28:54.936Z,18.40
2023-01-18T01:31:25.078Z,13.10
2023-01-18T01:33:55.286Z,15.47
2023-01-18T01:36:28.454Z,12.80
2023-01-18T01:39:03.334Z,12.33
2023-01-18T01:41:35.136Z,14.47
2023-01-18T01:44:07.491Z,19.90
2023-01-18T01:46:45.864Z,25.70
2023-01-18T01:49:19.128Z,19.63
2023-01-18T01:51:51.834Z,16.67
2023-01-18T01:54:28.464Z,19.83
2023-01-18T01:57:06.253Z,21.83
2023-01-18T01:59:40.402Z,31.87
2023-01-18T02:02:10.679Z,30.87
2023-01-18T02:04:46.628Z,62.43
2023-01-18T02:07:17.479Z,60.00
2023-01-18T02:09:50.725Z,64.30
2023-01-18T02:12:20.955Z,92.87
2023-01-18T02:14:50.997Z,62.20
2023-01-18T02:17:32.853Z,39.23
2023-01-18T02:20:34.805Z,43.80
2023-01-18T02:23:28.951Z,41.33
2023-01-18T02:26:32.202Z,34.57
2023-01-18T02:29:17.656Z,29.37
2023-01-18T02:32:05.956Z,32.53
2023-01-18T02:34:42.212Z,42.60
2023-01-18T02:37:21.574Z,39.90
2023-01-18T02:40:05.246Z,26.80
2023-01-18T02:42:49.110Z,33.87
2023-01-18T02:45:38.538Z,27.67
2023-01-18T02:48:10.723Z,22.03
2023-01-18T02:50:40.618Z,24.53
2023-01-18T02:53:10.661Z,23.47
2023-01-18T02:55:49.359Z,34.87
2023-01-18T02:58:25.402Z,32.37
2023-01-18T03:01:05.196Z,28.37
2023-01-18T03:03:35.155Z,30.97
2023-01-18T03:06:08.985Z,28.27
2023-01-18T03:08:43.386Z,27.67
2023-01-18T03:11:17.844Z,30.27
2023-01-18T03:14:01.953Z,26.23
2023-01-18T03:16:43.514Z,38.87
2023-01-18T03:19:33.113Z,35.23
2023-01-18T03:22:05.738Z,31.87
2023-01-18T03:24:41.426Z,41.43
2023-01-18T03:27:24.755Z,29.40
2023-01-18T03:30:07.029Z,21.10
2023-01-18T03:32:53.799Z,27.07
2023-01-18T03:35:27.608Z,25.17
2023-01-18T03:37:59.500Z,21.67
2023-01-18T03:40:32.155Z,22.07
2023-01-18T03:43:08.678Z,19.80
2023-01-18T03:45:43.151Z,19.60
2023-01-18T03:48:16.423Z,19.03
2023-01-18T03:50:52.464Z,14.53
2023-01-18T03:53:32.682Z,20.27
2023-01-18T03:56:07.995Z,14.53
2023-01-18T03:58:40.568Z,15.60
2023-01-18T04:01:10.534Z,19.87
2023-01-18T04:03:42.956Z,15.07
2023-01-18T04:06:12.949Z,15.13
2023-01-18T04:08:42.899Z,13.90
2023-01-18T04:11:12.617Z,16.03
2023-01-18T04:13:42.423Z,17.77
2023-01-18T04:16:12.454Z,17.43
2023-01-18T04:18:44.800Z,16.03
2023-01-18T04:21:14.629Z,12.10
2023-01-18T04:23:44.424Z,16.53
2023-01-18T04:26:16.824Z,17.30
2023-01-18T04:28:46.673Z,10.60
2023-01-18T04:31:16.839Z,14.73
2023-01-18T04:33:51.633Z,22.10
2023-01-18T04:36:22.099Z,13.50
2023-01-18T04:38:55.963Z,15.47
2023-01-18T04:41:26.017Z,22.33
2023-01-18T04:43:55.680Z,13.23
2023-01-18T04:46:25.591Z,12.73
2023-01-18T04:48:57.956Z,13.70
2023-01-18T04:51:27.725Z,11.10
2023-01-18T04:53:57.758Z,12.93
2023-01-18T04:56:27.477Z,16.10
2023-01-18T04:58:58.199Z,15.23
2023-01-18T05:01:29.832Z,11.50
2023-01-18T05:04:02.393Z,12.33
2023-01-18T05:06:32.130Z,14.70
2023-01-18T05:09:01.950Z,9.67
2023-01-18T05:11:31.723Z,11.07
2023-01-18T05:14:01.756Z,13.57
2023-01-18T05:16:31.489Z,11.93
2023-01-18T05:19:04.300Z,11.20
2023-01-18T05:21:34.121Z,16.23
2023-01-18T05:24:03.898Z,12.17
2023-01-18T05:26:33.843Z,12.97
2023-01-18T05:29:03.499Z,15.63
2023-01-18T05:31:33.247Z,12.13
2023-01-18T05:34:06.062Z,12.83
2023-01-18T05:36:35.761Z,12.97
2023-01-18T05:39:05.725Z,13.93
2023-01-18T05:41:35.495Z,12.30
2023-01-18T05:44:05.302Z,12.90
2023-01-18T05:46:35.165Z,18.00
2023-01-18T05:49:07.559Z,15.83
2023-01-18T05:51:38.255Z,15.10
2023-01-18T05:54:08.055Z,12.97
2023-01-18T05:56:38.010Z,11.30
2023-01-18T05:59:07.792Z,11.60
2023-01-18T06:01:37.729Z,12.93
2023-01-18T06:04:10.329Z,13.70
2023-01-18T06:06:40.101Z,16.67
2023-01-18T06:09:09.991Z,13.47
2023-01-18T06:11:39.891Z,21.10
2023-01-18T06:14:09.793Z,14.70
2023-01-18T06:16:39.570Z,15.00
2023-01-18T06:19:12.294Z,26.33
2023-01-18T06:21:42.076Z,11.70
2023-01-18T06:24:12.105Z,17.20
2023-01-18T06:26:42.169Z,13.23
2023-01-18T06:29:12.148Z,18.23
2023-01-18T06:31:42.200Z,16.80
2023-01-18T06:34:14.649Z,13.10
2023-01-18T06:36:45.292Z,13.30
2023-01-18T06:39:15.152Z,15.90
2023-01-18T06:41:44.919Z,17.37
2023-01-18T06:44:14.968Z,17.13
2023-01-18T06:46:46.713Z,14.87
2023-01-18T06:49:19.089Z,17.37
2023-01-18T06:51:48.964Z,18.70
2023-01-18T06:54:18.783Z,12.93
2023-01-18T06:56:48.556Z,16.30
2023-01-18T06:59:18.454Z,16.53
2023-01-18T07:01:48.506Z,16.97
2023-01-18T07:04:21.044Z,15.80
2023-01-18T07:06:50.968Z,18.80
2023-01-18T07:09:20.883Z,20.00
2023-01-18T07:11:50.672Z,16.67
2023-01-18T07:14:20.644Z,20.97
2023-01-18T07:16:50.438Z,22.77
2023-01-18T07:19:22.795Z,14.73
2023-01-18T07:21:54.112Z,15.20
2023-01-18T07:24:24.289Z,15.27
2023-01-18T07:26:54.047Z,19.83
2023-01-18T07:29:24.305Z,18.57
2023-01-18T07:31:54.283Z,18.10
2023-01-18T07:34:26.904Z,20.43
2023-01-18T07:36:56.718Z,15.93
2023-01-18T07:39:26.534Z,18.47
2023-01-18T07:41:56.297Z,21.93
2023-01-18T07:44:26.569Z,20.87
2023-01-18T07:46:56.283Z,15.67
2023-01-18T07:49:28.700Z,20.77
2023-01-18T07:51:58.458Z,19.63
2023-01-18T07:54:28.149Z,18.80
2023-01-18T07:56:57.855Z,20.10
2023-01-18T07:59:28.048Z,17.43
2023-01-18T08:01:58.225Z,22.03
2023-01-18T08:04:30.735Z,18.87
2023-01-18T08:07:00.727Z,22.60
2023-01-18T08:09:30.573Z,18.90
2023-01-18T08:12:00.331Z,16.83
2023-01-18T08:14:30.596Z,20.53
2023-01-18T08:17:00.471Z,23.77
2023-01-18T08:19:32.892Z,18.53
2023-01-18T08:22:02.840Z,16.10
2023-01-18T08:24:32.643Z,25.23
2023-01-18T08:27:02.338Z,22.20
2023-01-18T08:29:32.161Z,20.67
2023-01-18T08:32:02.603Z,21.23
2023-01-18T08:34:34.962Z,20.80
2023-01-18T08:37:04.967Z,28.07
2023-01-18T08:39:34.820Z,23.90
2023-01-18T08:42:04.668Z,23.27
2023-01-18T08:44:34.846Z,21.67
2023-01-18T08:47:04.556Z,21.37
2023-01-18T08:49:37.155Z,27.23
2023-01-18T08:52:07.232Z,22.93
2023-01-18T08:54:36.988Z,23.30
2023-01-18T08:57:08.211Z,19.13
2023-01-18T08:59:37.926Z,25.63
2023-01-18T09:02:07.772Z,21.83
2023-01-18T09:04:40.217Z,24.03
2023-01-18T09:07:10.252Z,28.60
2023-01-18T09:09:39.991Z,27.00
2023-01-18T09:12:10.048Z,26.13
2023-01-18T09:14:40.258Z,28.70
2023-01-18T09:17:10.024Z,25.77
2023-01-18T09:19:42.506Z,19.83
2023-01-18T09:22:13.676Z,22.30
2023-01-18T09:24:43.609Z,28.33
2023-01-18T09:27:14.245Z,22.73
2023-01-18T09:29:44.062Z,21.17
2023-01-18T09:32:14.120Z,28.53
2023-01-18T09:34:49.377Z,19.67
2023-01-18T09:37:19.235Z,24.40
2023-01-18T09:39:52.120Z,25.10
2023-01-18T09:42:25.198Z,25.80
2023-01-18T09:44:59.806Z,30.80
2023-01-18T09:47:32.222Z,19.67
2023-01-18T09:50:11.163Z,28.97
2023-01-18T09:52:49.298Z,27.33
2023-01-18T09:55:27.741Z,28.37
2023-01-18T09:58:14.408Z,32.00
2023-01-18T10:00:47.892Z,29.13
2023-01-18T10:03:22.523Z,31.17
2023-01-18T10:06:09.044Z,27.10
2023-01-18T10:08:44.083Z,25.53
2023-01-18T10:11:21.853Z,29.07
2023-01-18T10:13:59.911Z,28.57
2023-01-18T10:16:29.832Z,27.77
2023-01-18T10:19:01.706Z,26.90
2023-01-18T10:21:50.301Z,29.73
2023-01-18T10:24:30.988Z,31.60
2023-01-18T10:27:16.288Z,27.33
2023-01-18T10:29:56.811Z,33.43
2023-01-18T10:32:28.925Z,25.60
2023-01-18T10:35:00.553Z,30.50
2023-01-18T10:37:42.835Z,34.30
2023-01-18T10:40:15.032Z,24.00
2023-01-18T10:42:48.552Z,35.17
2023-01-18T10:45:21.345Z,25.93
2023-01-18T10:47:52.079Z,29.67
2023-01-18T10:50:24.910Z,27.40
2023-01-18T10:52:57.771Z,29.57
2023-01-18T10:55:29.057Z,30.63
2023-01-18T10:57:59.309Z,26.23
2023-01-18T11:00:36.461Z,30.53
2023-01-18T11:03:10.099Z,30.60
2023-01-18T11:05:42.894Z,25.27
2023-01-18T11:08:25.574Z,27.70
2023-01-18T11:11:03.754Z,26.57
2023-01-18T11:13:37.781Z,26.63
2023-01-18T11:16:13.914Z,32.70
2023-01-18T11:18:58.712Z,27.27
2023-01-18T11:21:33.412Z,9.80
2023-01-18T11:24:15.679Z,29.77
2023-01-18T11:26:59.199Z,30.07
2023-01-18T11:29:31.864Z,28.03
2023-01-18T11:32:07.123Z,32.73
2023-01-18T11:34:41.202Z,27.97
2023-01-18T11:37:34.507Z,25.83
2023-01-18T11:40:28.177Z,28.23
2023-01-18T11:43:03.745Z,26.87
2023-01-18T11:45:36.564Z,32.53
2023-01-18T11:48:15.217Z,17.00
2023-01-18T11:50:49.819Z,23.73
2023-01-18T11:53:32.486Z,24.57
2023-01-18T11:56:09.591Z,26.30
2023-01-18T11:58:40.072Z,22.03
2023-01-18T12:01:27.089Z,22.40
2023-01-18T12:04:02.959Z,25.23
2023-01-18T12:06:44.011Z,26.37
2023-01-18T12:09:27.945Z,15.90
2023-01-18T12:12:19.212Z,33.93
2023-01-18T12:15:02.092Z,28.53
2023-01-18T12:18:01.264Z,35.27
2023-01-18T12:20:47.042Z,20.50
2023-01-18T12:23:55.056Z,27.10
2023-01-18T12:26:51.410Z,25.97
2023-01-18T12:29:59.932Z,22.67
2023-01-18T12:32:49.681Z,25.67
2023-01-18T12:35:39.847Z,21.93
2023-01-18T12:38:23.223Z,19.80
2023-01-18T12:41:21.568Z,27.60
2023-01-18T12:44:08.361Z,19.40
2023-01-18T12:46:46.908Z,15.17
2023-01-18T12:49:21.585Z,30.30
2023-01-18T12:52:09.199Z,20.13
2023-01-18T12:54:50.585Z,23.93
2023-01-18T12:57:23.180Z,20.43
2023-01-18T12:59:57.391Z,25.13
2023-01-18T13:02:35.064Z,20.70
2023-01-18T13:05:09.432Z,22.13
2023-01-18T13:07:44.825Z,18.73
2023-01-18T13:10:22.266Z,20.40
2023-01-18T13:12:53.868Z,24.17
2023-01-18T13:15:34.390Z,19.90
2023-01-18T13:18:14.042Z,18.37
2023-01-18T13:20:56.207Z,21.00
2023-01-18T13:23:39.889Z,19.43
2023-01-18T13:26:22.092Z,25.47
2023-01-18T13:29:08.509Z,26.80
2023-01-18T13:31:39.008Z,18.43
2023-01-18T13:34:28.983Z,22.33
2023-01-18T13:37:13.829Z,25.40
2023-01-18T13:39:51.423Z,19.67
2023-01-18T13:42:38.500Z,23.43
2023-01-18T13:45:23.283Z,18.77
2023-01-18T13:48:03.518Z,20.63
2023-01-18T13:50:52.376Z,13.37
2023-01-18T13:53:27.255Z,15.37
2023-01-18T13:56:36.777Z,9.27
2023-01-18T13:59:19.505Z,15.00
2023-01-18T14:01:51.721Z,8.53
2023-01-18T14:04:33.182Z,11.90
2023-01-18T14:07:08.100Z,11.80
2023-01-18T14:09:42.988Z,14.27
2023-01-18T14:12:14.850Z,8.90
2023-01-18T14:15:03.381Z,9.17
2023-01-18T14:17:46.783Z,10.37
2023-01-18T14:20:55.075Z,10.70
2023-01-18T14:23:38.933Z,8.00
2023-01-18T14:26:10.861Z,12.93
2023-01-18T14:28:48.608Z,11.20
2023-01-18T14:31:23.314Z,10.87
2023-01-18T14:33:53.254Z,12.63
2023-01-18T14:36:25.059Z,15.03
2023-01-18T14:39:17.772Z,17.47
2023-01-18T14:41:50.716Z,9.30
2023-01-18T14:44:24.059Z,9.87
2023-01-18T14:46:55.598Z,8.70
2023-01-18T14:49:29.086Z,10.50
2023-01-18T14:51:59.789Z,16.60
2023-01-18T14:54:32.258Z,12.90
2023-01-18T14:57:09.627Z,8.87
2023-01-18T14:59:39.834Z,9.67
2023-01-18T15:02:19.331Z,12.00
2023-01-18T15:04:49.736Z,7.20
2023-01-18T15:07:22.790Z,10.20
2023-01-18T15:09:55.433Z,13.30
2023-01-18T15:12:31.918Z,10.33
2023-01-18T15:15:09.378Z,10.20
2023-01-18T15:17:40.449Z,14.60
2023-01-18T15:20:17.289Z,15.17
2023-01-18T15:22:50.899Z,9.30
2023-01-18T15:25:29.312Z,13.07
2023-01-18T15:28:14.765Z,9.43
2023-01-18T15:30:53.496Z,11.40
2023-01-18T15:33:26.408Z,11.57
2023-01-18T15:36:01.145Z,9.03
2023-01-18T15:38:31.572Z,14.60
2023-01-18T15:41:09.072Z,11.53
2023-01-18T15:43:44.063Z,14.93
2023-01-18T15:46:17.168Z,11.17
2023-01-18T15:48:53.720Z,10.50
2023-01-18T15:51:44.227Z,10.97
2023-01-18T15:54:20.857Z,15.77
2023-01-18T15:56:53.928Z,25.13
2023-01-18T15:59:25.697Z,14.57
2023-01-18T16:02:19.000Z,15.80
2023-01-18T16:04:49.591Z,11.57
2023-01-18T16:07:39.270Z,10.57
2023-01-18T16:10:31.259Z,17.80
2023-01-18T16:13:31.100Z,11.27
2023-01-18T16:16:14.454Z,12.40
2023-01-18T16:18:46.329Z,17.40
2023-01-18T16:21:26.323Z,15.37
2023-01-18T16:23:57.123Z,12.03
2023-01-18T16:26:31.827Z,20.17
2023-01-18T16:29:10.063Z,16.77
2023-01-18T16:31:45.951Z,17.10
2023-01-18T16:34:27.437Z,10.30
2023-01-18T16:36:57.365Z,11.00
2023-01-18T16:39:27.272Z,10.40
2023-01-18T16:42:00.376Z,13.80
2023-01-18T16:44:32.077Z,17.73
2023-01-18T16:47:05.029Z,10.03
2023-01-18T16:49:35.331Z,19.23
2023-01-18T16:52:07.639Z,22.40
2023-01-18T16:54:37.368Z,17.30
2023-01-18T16:57:07.164Z,17.10
2023-01-18T16:59:37.282Z,20.17
2023-01-18T17:02:09.968Z,15.90
2023-01-18T17:04:39.836Z,16.00
2023-01-18T17:07:09.671Z,18.10
2023-01-18T17:09:47.833Z,20.53
2023-01-18T17:12:19.077Z,19.87
2023-01-18T17:14:48.959Z,8.07
2023-01-18T17:17:21.769Z,11.03
2023-01-18T17:19:51.705Z,12.40
2023-01-18T17:22:21.541Z,11.37
2023-01-18T17:24:53.544Z,9.13
2023-01-18T17:27:23.376Z,18.17
2023-01-18T17:29:53.141Z,12.10
2023-01-18T17:32:25.530Z,9.87
2023-01-18T17:34:55.356Z,9.50
2023-01-18T17:37:25.116Z,10.87
2023-01-18T17:40:11.133Z,9.43
2023-01-18T17:42:43.863Z,9.10
2023-01-18T17:45:14.612Z,10.50
2023-01-18T17:47:48.132Z,8.60
2023-01-18T17:50:24.924Z,8.13
2023-01-18T17:52:55.454Z,8.50
2023-01-18T17:55:34.269Z,11.43
2023-01-18T17:58:05.500Z,12.87
2023-01-18T18:00:35.336Z,10.43
2023-01-18T18:03:08.083Z,14.37
2023-01-18T18:05:38.598Z,10.80
2023-01-18T18:08:09.962Z,6.90
2023-01-18T18:10:40.001Z,8.07
2023-01-18T18:13:09.712Z,8.47
2023-01-18T18:15:39.639Z,9.87
2023-01-18T18:18:22.583Z,11.13
2023-01-18T18:20:53.536Z,9.37
2023-01-18T18:23:23.306Z,12.57
2023-01-18T18:25:53.131Z,10.30
2023-01-18T18:28:24.673Z,5.87
2023-01-18T18:30:56.806Z,8.07
2023-01-18T18:33:31.434Z,12.63
2023-01-18T18:36:02.246Z,10.03
2023-01-18T18:38:31.991Z,11.00
2023-01-18T18:41:06.627Z,13.33
2023-01-18T18:43:37.216Z,10.53
2023-01-18T18:46:07.612Z,10.33
2023-01-18T18:48:40.291Z,14.80
2023-01-18T18:51:10.082Z,10.47
2023-01-18T18:53:41.176Z,10.60
2023-01-18T18:56:12.136Z,10.77
2023-01-18T18:58:42.307Z,7.93
2023-01-18T19:01:22.140Z,16.87
2023-01-18T19:03:56.318Z,10.53
2023-01-18T19:06:27.268Z,12.80
2023-01-18T19:08:57.655Z,11.10
2023-01-18T19:11:27.408Z,8.40
2023-01-18T19:13:58.711Z,10.43
2023-01-18T19:16:28.623Z,9.10
2023-01-18T19:19:01.301Z,10.50
2023-01-18T19:21:32.533Z,12.50
2023-01-18T19:24:02.464Z,15.07
2023-01-18T19:26:32.217Z,13.57
2023-01-18T19:29:02.136Z,11.73
2023-01-18T19:31:32.847Z,14.20
2023-01-18T19:34:05.357Z,11.27
2023-01-18T19:36:35.271Z,15.90
2023-01-18T19:39:09.225Z,14.73
2023-01-18T19:41:44.445Z,13.63
2023-01-18T19:44:14.757Z,16.43
2023-01-18T19:46:44.629Z,12.27
2023-01-18T19:49:20.126Z,12.73
2023-01-18T19:51:50.418Z,12.40
2023-01-18T19:54:20.480Z,18.53
2023-01-18T19:56:51.464Z,14.30
2023-01-18T19:59:21.244Z,12.37
2023-01-18T20:01:52.588Z,12.47
2023-01-18T20:04:25.123Z,16.27
2023-01-18T20:06:56.326Z,16.70
2023-01-18T20:09:35.091Z,10.53
2023-01-18T20:12:13.429Z,12.97
2023-01-18T20:14:44.916Z,10.80
2023-01-18T20:17:16.161Z,10.23
2023-01-18T20:19:51.026Z,11.83
2023-01-18T20:22:20.827Z,18.37
2023-01-18T20:24:50.705Z,14.40
2023-01-18T20:27:22.250Z,14.93
2023-01-18T20:29:52.068Z,15.80
2023-01-18T20:32:22.635Z,14.13
2023-01-18T20:34:55.485Z,15.77
2023-01-18T20:37:25.588Z,13.17
2023-01-18T20:39:56.195Z,15.10
2023-01-18T20:42:26.359Z,11.93
2023-01-18T20:45:00.596Z,13.27
2023-01-18T20:47:30.518Z,13.27
2023-01-18T20:50:03.442Z,13.57
2023-01-18T20:52:36.397Z,10.27
2023-01-18T20:55:06.766Z,10.73
2023-01-18T20:57:36.632Z,10.23
2023-01-18T21:00:07.390Z,11.67
2023-01-18T21:02:37.349Z,12.07
2023-01-18T21:05:10.529Z,11.50
2023-01-18T21:07:41.775Z,8.03
2023-01-18T21:10:13.769Z,11.50
2023-01-18T21:12:45.454Z,14.13
2023-01-18T21:15:15.892Z,10.93
2023-01-18T21:17:47.095Z,11.50
2023-01-18T21:20:19.957Z,9.27
2023-01-18T21:22:49.967Z,11.97
2023-01-18T21:25:20.150Z,13.93
2023-01-18T21:27:50.008Z,11.93
2023-01-18T21:30:20.202Z,11.27
2023-01-18T21:32:50.498Z,14.30
2023-01-18T21:35:23.331Z,14.93
2023-01-18T21:37:53.067Z,9.27
2023-01-18T21:40:23.052Z,11.27
2023-01-18T21:43:05.199Z,16.67
2023-01-18T21:45:47.466Z,13.60
2023-01-18T21:48:18.310Z,13.50
2023-01-18T21:51:05.569Z,12.00
2023-01-18T21:53:48.168Z,10.83
2023-01-18T21:56:18.061Z,10.87
2023-01-18T21:58:58.632Z,9.47
2023-01-18T22:01:34.052Z,12.70
2023-01-18T22:04:21.275Z,17.17
2023-01-18T22:06:54.181Z,15.17
2023-01-18T22:09:24.288Z,13.27
2023-01-18T22:11:56.072Z,11.97
2023-01-18T22:14:31.792Z,12.73
2023-01-18T22:17:02.343Z,12.83
2023-01-18T22:19:32.232Z,14.70
2023-01-18T22:22:04.876Z,12.63
2023-01-18T22:24:34.658Z,15.53
2023-01-18T22:27:11.202Z,14.13
2023-01-18T22:29:41.035Z,13.30
2023-01-18T22:32:10.891Z,7.63
2023-01-18T22:34:41.811Z,13.33
2023-01-18T22:37:14.309Z,16.70
2023-01-18T22:39:44.175Z,15.10
2023-01-18T22:42:15.721Z,18.73
2023-01-18T22:44:48.757Z,17.40
2023-01-18T22:47:19.072Z,17.83
2023-01-18T22:49:50.483Z,12.87
2023-01-18T22:52:23.061Z,16.17
2023-01-18T22:54:53.250Z,13.00
2023-01-18T22:57:23.065Z,15.80
2023-01-18T22:59:53.354Z,15.17
2023-01-18T23:02:23.259Z,15.47
2023-01-18T23:04:57.224Z,16.63
2023-01-18T23:07:32.943Z,18.07
2023-01-18T23:10:02.789Z,18.87
2023-01-18T23:12:32.904Z,17.70
2023-01-18T23:15:23.981Z,18.87
2023-01-18T23:17:57.909Z,18.93
2023-01-18T23:20:27.944Z,17.73
2023-01-18T23:23:02.944Z,15.37
2023-01-18T23:25:34.958Z,15.17
2023-01-18T23:28:06.188Z,19.23
2023-01-18T23:30:35.869Z,14.67
2023-01-18T23:33:05.632Z,13.87
2023-01-18T23:35:37.646Z,17.67
2023-01-18T23:38:12.544Z,10.83
2023-01-18T23:40:55.764Z,18.07
2023-01-18T23:43:38.987Z,18.83
2023-01-18T23:46:21.299Z,19.83
2023-01-18T23:49:03.717Z,15.83
2023-01-18T23:51:47.418Z,12.93
2023-01-18T23:54:19.947Z,13.53
2023-01-18T23:56:50.484Z,13.80
2023-01-18T23:59:20.524Z,12.87
